Time;durP1;ratioP1;P1;durP2;ratioP2;P2;SDS_P1;SDS_P2;PMS_P1;PMS_P2;Temp;Humidity;BMP_temperature;BMP_pressure;BME280_temperature;BME280_humidity;BME280_pressure;Samples;Min_cycle;Max_cycle;Signal;HPM_P1;HPM_P2
2022/01/06 00:00:02;;;;;;;7.23;1.60;;;6.10;99.90;;;;;;5071130;28;20192;-79
2022/01/06 00:02:29;;;;;;;4.87;1.60;;;6.20;99.90;;;;;;5070943;28;20193;-78
2022/01/06 00:04:55;;;;;;;3.47;1.20;;;6.30;99.90;;;;;;5071255;28;20192;-78
2022/01/06 00:07:22;;;;;;;4.07;1.33;;;6.30;99.90;;;;;;5072521;28;20697;-76
2022/01/06 00:09:49;;;;;;;2.97;1.07;;;6.20;99.90;;;;;;5054387;28;20204;-78
2022/01/06 00:12:17;;;;;;;2.63;1.03;;;6.40;99.90;;;;;;5054305;28;20204;-79
2022/01/06 00:15:08;;;;;;;2.53;1.50;;;6.60;99.90;;;;;;5070875;28;20289;-75
2022/01/06 00:17:44;;;;;;;4.00;1.30;;;6.60;99.90;;;;;;5054013;28;20285;-76
2022/01/06 00:23:23;;;;;;;7.63;1.50;;;6.50;99.90;;;;;;5072035;28;20188;-78
2022/01/06 00:25:50;;;;;;;5.37;1.57;;;6.60;99.90;;;;;;5070986;28;20164;-78
2022/01/06 00:28:18;;;;;;;4.17;1.50;;;6.60;99.90;;;;;;5070303;28;20566;-78
2022/01/06 00:30:44;;;;;;;5.13;1.70;;;6.50;99.90;;;;;;5053265;28;20211;-77
2022/01/06 00:33:11;;;;;;;6.10;1.50;;;6.40;99.90;;;;;;5071120;28;20212;-77
2022/01/06 00:35:38;;;;;;;3.90;1.37;;;6.30;99.90;;;;;;5053691;28;20242;-78
2022/01/06 00:38:07;;;;;;;2.83;1.43;;;6.40;99.90;;;;;;5053731;28;20574;-77
2022/01/06 00:40:38;;;;;;;5.07;1.70;;;6.30;99.90;;;;;;5071847;28;20203;-78
2022/01/06 00:43:06;;;;;;;7.80;1.50;;;6.40;99.90;;;;;;5070159;28;20208;-76
2022/01/06 00:45:33;;;;;;;4.90;1.60;;;6.50;99.90;;;;;;5036921;28;20238;-78
2022/01/06 00:47:59;;;;;;;4.50;2.10;;;6.50;99.90;;;;;;5070357;28;20203;-77
2022/01/06 00:50:27;;;;;;;3.97;1.27;;;6.70;99.90;;;;;;5070160;28;20200;-77
2022/01/06 00:52:52;;;;;;;6.47;1.63;;;6.40;99.90;;;;;;5071409;28;20207;-78
2022/01/06 00:55:18;;;;;;;6.43;1.80;;;6.30;99.90;;;;;;5069868;28;20655;-76
2022/01/06 00:57:44;;;;;;;8.00;1.80;;;6.20;99.90;;;;;;5071372;28;20207;-77
2022/01/06 01:00:11;;;;;;;3.83;1.47;;;6.50;99.90;;;;;;5069821;28;20200;-79
2022/01/06 01:02:37;;;;;;;4.80;1.47;;;6.60;99.90;;;;;;5037375;28;20622;-78
2022/01/06 01:05:04;;;;;;;2.87;1.37;;;6.70;99.90;;;;;;5070008;28;20216;-79
2022/01/06 01:07:30;;;;;;;7.63;1.43;;;6.50;99.90;;;;;;5071015;28;20246;-77
2022/01/06 01:09:55;;;;;;;2.93;1.63;;;6.50;99.90;;;;;;5069994;28;20266;-78
2022/01/06 01:12:24;;;;;;;3.67;1.63;;;6.60;99.90;;;;;;5069914;28;20215;-78
2022/01/06 01:14:57;;;;;;;3.63;1.37;;;6.60;99.90;;;;;;5069765;28;20295;-76
2022/01/06 01:17:26;;;;;;;2.97;1.30;;;6.40;99.90;;;;;;5054145;28;20267;-76
2022/01/06 01:19:52;;;;;;;4.23;1.67;;;6.60;99.90;;;;;;5053297;28;20204;-77
2022/01/06 01:22:18;;;;;;;4.30;1.60;;;6.70;99.90;;;;;;5069575;28;20725;-77
2022/01/06 01:24:44;;;;;;;3.27;1.63;;;6.50;99.90;;;;;;5068565;28;20283;-77
2022/01/06 01:27:10;;;;;;;3.20;1.60;;;6.50;99.90;;;;;;5069454;28;20192;-77
2022/01/06 01:29:51;;;;;;;6.13;1.40;;;6.70;99.90;;;;;;5070815;28;20999;-78
2022/01/06 01:32:26;;;;;;;7.53;1.93;;;6.70;99.90;;;;;;5070208;28;20576;-78
2022/01/06 01:34:59;;;;;;;3.50;1.80;;;6.80;99.90;;;;;;5070385;28;20206;-79
2022/01/06 01:37:25;;;;;;;6.67;1.53;;;6.80;99.90;;;;;;5053578;28;20193;-76
2022/01/06 01:39:50;;;;;;;3.30;1.13;;;7.00;99.90;;;;;;5036128;28;20216;-77
2022/01/06 01:42:16;;;;;;;7.63;1.63;;;7.00;99.90;;;;;;5052106;28;20177;-79
2022/01/06 01:44:44;;;;;;;2.97;1.40;;;6.90;99.90;;;;;;5071210;28;20900;-77
2022/01/06 01:47:14;;;;;;;3.53;1.23;;;6.50;99.90;;;;;;5069485;28;20199;-79
2022/01/06 01:49:50;;;;;;;3.97;1.50;;;6.50;99.90;;;;;;5053222;28;20223;-75
2022/01/06 01:52:16;;;;;;;5.10;1.83;;;6.50;99.90;;;;;;5069518;28;20204;-76
2022/01/06 01:54:42;;;;;;;4.93;1.67;;;6.60;99.90;;;;;;5052956;28;20205;-76
2022/01/06 01:57:07;;;;;;;3.93;1.40;;;6.70;99.90;;;;;;5069174;28;20279;-77
2022/01/06 01:59:33;;;;;;;4.00;1.57;;;6.60;99.90;;;;;;5052956;28;20231;-76
2022/01/06 02:01:59;;;;;;;6.90;1.30;;;6.50;99.90;;;;;;5069626;28;20244;-77
2022/01/06 02:04:25;;;;;;;3.27;1.40;;;6.60;99.90;;;;;;5071027;28;20679;-75
2022/01/06 02:06:51;;;;;;;2.33;1.30;;;6.50;99.90;;;;;;5069165;28;20226;-78
2022/01/06 02:09:17;;;;;;;7.13;1.37;;;6.30;99.90;;;;;;5069156;28;20173;-76
2022/01/06 02:11:43;;;;;;;4.67;1.60;;;6.40;99.90;;;;;;5069278;28;20227;-77
2022/01/06 02:14:09;;;;;;;4.20;1.73;;;6.40;99.90;;;;;;5069488;28;20691;-79
2022/01/06 02:16:34;;;;;;;7.17;1.63;;;6.50;99.90;;;;;;5069107;28;20192;-75
2022/01/06 02:19:00;;;;;;;3.97;1.40;;;6.50;99.90;;;;;;5069304;28;20200;-78
2022/01/06 02:21:26;;;;;;;5.77;1.40;;;6.50;99.90;;;;;;5070966;28;20655;-79
2022/01/06 02:23:52;;;;;;;1.70;1.30;;;6.20;99.90;;;;;;5068969;28;20219;-78
2022/01/06 02:26:18;;;;;;;5.00;1.53;;;6.30;99.90;;;;;;5070325;28;20207;-76
2022/01/06 02:28:44;;;;;;;2.20;1.37;;;6.40;99.90;;;;;;5070695;28;20250;-79
2022/01/06 02:31:10;;;;;;;6.23;1.70;;;6.50;99.90;;;;;;5069387;28;20571;-77
2022/01/06 02:33:36;;;;;;;3.43;1.70;;;6.50;99.90;;;;;;5052248;28;20575;-77
2022/01/06 02:36:03;;;;;;;4.17;1.80;;;6.40;99.90;;;;;;5053014;28;20671;-78
2022/01/06 02:38:29;;;;;;;5.13;1.77;;;6.30;99.90;;;;;;5069138;28;20183;-78
2022/01/06 02:40:55;;;;;;;4.63;1.50;;;6.10;99.90;;;;;;5069177;28;20844;-79
2022/01/06 02:43:23;;;;;;;3.80;1.60;;;6.10;99.90;;;;;;5067788;28;20224;-77
2022/01/06 02:45:50;;;;;;;5.27;1.50;;;5.90;99.90;;;;;;5060192;28;20204;-78
2022/01/06 02:48:16;;;;;;;4.93;1.53;;;6.10;99.90;;;;;;5070537;28;20264;-78
2022/01/06 02:50:47;;;;;;;2.00;1.10;;;6.10;99.90;;;;;;5052037;28;20197;-78
2022/01/06 02:53:14;;;;;;;2.57;1.30;;;6.40;99.90;;;;;;5071144;28;20244;-76
2022/01/06 02:55:47;;;;;;;5.77;1.27;;;6.00;99.90;;;;;;5073792;28;20191;-76
2022/01/06 02:58:13;;;;;;;2.87;1.50;;;6.20;99.90;;;;;;5056279;28;20222;-76
2022/01/06 03:00:39;;;;;;;6.23;1.70;;;6.10;99.90;;;;;;5072457;28;20279;-77
2022/01/06 03:03:05;;;;;;;7.87;1.60;;;6.20;99.90;;;;;;5072711;28;20291;-77
2022/01/06 03:05:31;;;;;;;5.23;1.33;;;6.40;99.90;;;;;;5055248;28;20271;-80
2022/01/06 03:07:57;;;;;;;3.97;2.00;;;6.50;99.90;;;;;;5073891;28;20196;-77
2022/01/06 03:10:23;;;;;;;4.93;1.50;;;6.20;99.90;;;;;;5073093;28;20704;-77
2022/01/06 03:12:49;;;;;;;3.57;1.17;;;6.20;99.90;;;;;;5055392;28;20261;-77
2022/01/06 03:15:21;;;;;;;4.53;1.53;;;6.30;99.90;;;;;;5071819;28;20224;-78
2022/01/06 03:17:49;;;;;;;4.00;1.30;;;6.40;99.90;;;;;;5054848;28;20250;-77
2022/01/06 03:20:17;;;;;;;5.53;1.20;;;6.50;99.90;;;;;;5072137;28;20216;-77
2022/01/06 03:22:47;;;;;;;3.93;1.20;;;6.50;99.90;;;;;;5055469;28;20200;-79
2022/01/06 03:25:13;;;;;;;4.90;1.30;;;6.40;99.90;;;;;;5072027;28;20287;-77
2022/01/06 03:27:41;;;;;;;4.07;1.70;;;6.50;99.90;;;;;;5038657;28;20534;-78
2022/01/06 03:30:12;;;;;;;5.60;1.73;;;6.60;99.90;;;;;;5071943;28;20188;-79
2022/01/06 03:32:41;;;;;;;3.17;1.43;;;6.50;99.90;;;;;;5071896;28;20204;-78
2022/01/06 03:35:09;;;;;;;4.67;1.50;;;6.60;99.90;;;;;;5071849;28;20546;-79
2022/01/06 03:37:35;;;;;;;3.50;1.30;;;6.70;99.90;;;;;;5053640;28;20200;-78
2022/01/06 03:40:04;;;;;;;3.00;1.50;;;6.80;99.90;;;;;;5071469;28;20657;-78
2022/01/06 03:42:35;;;;;;;5.53;1.47;;;6.70;99.90;;;;;;5072972;28;20222;-76
2022/01/06 03:45:04;;;;;;;2.70;1.30;;;6.50;99.90;;;;;;5071593;28;20570;-78
2022/01/06 03:47:30;;;;;;;3.47;1.53;;;6.50;99.90;;;;;;5071146;28;20220;-76
2022/01/06 03:49:55;;;;;;;2.33;1.40;;;6.70;99.90;;;;;;5071287;28;20264;-76
2022/01/06 03:52:24;;;;;;;5.00;1.53;;;6.40;99.90;;;;;;5072623;28;20715;-78
2022/01/06 03:54:51;;;;;;;3.43;1.20;;;6.10;99.90;;;;;;5072384;28;20265;-77
2022/01/06 03:57:17;;;;;;;2.13;1.40;;;6.30;99.90;;;;;;5071643;28;20169;-78
2022/01/06 03:59:43;;;;;;;4.00;1.50;;;6.20;99.90;;;;;;5021499;28;20671;-77
2022/01/06 04:02:09;;;;;;;4.50;1.40;;;6.40;99.90;;;;;;5071277;28;20199;-77
2022/01/06 04:04:35;;;;;;;2.23;1.03;;;6.50;99.90;;;;;;5071499;28;20211;-79
2022/01/06 04:07:00;;;;;;;3.63;1.37;;;6.30;99.90;;;;;;5072345;28;20189;-77
2022/01/06 04:09:26;;;;;;;3.43;1.30;;;6.30;99.90;;;;;;5071011;28;20196;-76
2022/01/06 04:11:52;;;;;;;2.27;1.17;;;6.50;99.90;;;;;;5054167;28;20357;-77
2022/01/06 04:14:18;;;;;;;2.03;1.20;;;6.40;99.90;;;;;;5054327;28;20204;-78
2022/01/06 04:16:44;;;;;;;3.60;1.13;;;6.40;99.90;;;;;;5054567;28;20231;-79
2022/01/06 04:19:09;;;;;;;1.93;1.33;;;6.50;99.90;;;;;;5054525;28;20271;-77
2022/01/06 04:21:35;;;;;;;2.23;1.30;;;6.40;99.90;;;;;;5071292;28;20275;-78
2022/01/06 04:24:02;;;;;;;4.33;1.50;;;6.50;99.90;;;;;;5071115;28;20188;-77
2022/01/06 04:26:29;;;;;;;3.20;1.33;;;6.50;99.90;;;;;;5070470;28;20208;-77
2022/01/06 04:28:54;;;;;;;3.70;1.40;;;6.60;99.90;;;;;;5072027;28;20696;-77
2022/01/06 04:31:20;;;;;;;6.77;1.57;;;6.50;99.90;;;;;;5070690;28;20204;-78
2022/01/06 04:33:46;;;;;;;3.03;1.50;;;6.40;99.90;;;;;;5070560;28;20579;-78
2022/01/06 04:36:12;;;;;;;2.97;1.57;;;6.40;99.90;;;;;;5053519;28;20196;-77
2022/01/06 04:38:38;;;;;;;2.23;1.43;;;6.50;99.90;;;;;;5053992;28;20208;-78
2022/01/06 04:41:04;;;;;;;5.33;1.83;;;6.50;99.90;;;;;;5071807;28;20607;-76
2022/01/06 04:43:31;;;;;;;5.47;1.50;;;6.60;99.90;;;;;;5070575;28;20184;-78
2022/01/06 04:45:58;;;;;;;4.47;1.47;;;6.50;99.90;;;;;;5071037;28;20200;-77
2022/01/06 04:48:26;;;;;;;2.87;1.50;;;6.60;99.90;;;;;;5072149;28;20193;-78
2022/01/06 04:50:52;;;;;;;2.93;1.50;;;6.60;99.90;;;;;;5054320;28;20208;-77
2022/01/06 04:53:17;;;;;;;7.03;2.00;;;6.50;99.90;;;;;;5053688;28;20220;-78
2022/01/06 04:55:43;;;;;;;3.07;1.37;;;6.60;99.90;;;;;;5071487;28;20611;-78
2022/01/06 04:58:09;;;;;;;1.97;1.40;;;6.50;99.90;;;;;;5037069;28;20521;-79
2022/01/06 05:00:35;;;;;;;6.67;1.50;;;6.50;99.90;;;;;;5070158;28;20200;-79
2022/01/06 05:03:00;;;;;;;4.30;1.77;;;6.40;99.90;;;;;;5071259;28;20194;-75
2022/01/06 05:05:26;;;;;;;1.73;1.30;;;6.60;99.90;;;;;;5036750;28;20200;-77
2022/01/06 05:07:52;;;;;;;4.67;1.50;;;6.50;99.90;;;;;;5069768;28;20550;-77
2022/01/06 05:10:18;;;;;;;3.40;1.40;;;6.60;99.90;;;;;;5052898;28;20212;-77
2022/01/06 05:12:44;;;;;;;2.30;1.43;;;6.50;99.90;;;;;;5036573;28;20262;-76
2022/01/06 05:15:12;;;;;;;2.10;1.10;;;6.50;99.90;;;;;;5052716;28;20250;-77
2022/01/06 05:17:38;;;;;;;2.33;1.43;;;6.70;99.90;;;;;;5071297;28;20277;-78
2022/01/06 05:20:05;;;;;;;1.73;1.07;;;6.60;99.90;;;;;;5070231;28;20292;-77
2022/01/06 05:22:32;;;;;;;2.90;1.40;;;6.50;99.90;;;;;;5070324;28;20249;-79
2022/01/06 05:24:58;;;;;;;2.70;1.37;;;6.40;99.90;;;;;;5070932;28;21093;-78
2022/01/06 05:27:25;;;;;;;1.50;1.10;;;6.40;99.90;;;;;;5069868;28;20173;-79
2022/01/06 05:29:51;;;;;;;2.03;1.63;;;6.50;99.90;;;;;;5070929;28;20604;-77
2022/01/06 05:32:17;;;;;;;2.57;1.20;;;6.60;99.90;;;;;;5070751;28;20223;-76
2022/01/06 05:34:43;;;;;;;2.93;1.30;;;6.60;99.90;;;;;;5070608;28;20545;-77
2022/01/06 05:37:09;;;;;;;5.03;1.37;;;6.50;99.90;;;;;;5069673;28;20724;-77
2022/01/06 05:39:35;;;;;;;3.13;1.60;;;6.50;99.90;;;;;;5069427;28;20579;-77
2022/01/06 05:42:01;;;;;;;6.70;1.73;;;6.60;99.90;;;;;;5071054;28;20188;-79
2022/01/06 05:44:27;;;;;;;3.63;1.50;;;6.70;99.90;;;;;;5052167;28;20212;-78
2022/01/06 05:46:53;;;;;;;3.30;1.60;;;6.70;99.90;;;;;;5052989;28;20200;-76
2022/01/06 05:49:19;;;;;;;2.80;1.40;;;6.70;99.90;;;;;;5069476;28;20199;-78
2022/01/06 05:51:45;;;;;;;3.20;1.27;;;6.60;99.90;;;;;;5070749;28;20223;-78
2022/01/06 05:54:11;;;;;;;2.97;1.43;;;6.60;99.90;;;;;;5069661;28;20833;-79
2022/01/06 05:56:36;;;;;;;5.27;1.63;;;6.50;99.90;;;;;;5052683;28;20631;-79
2022/01/06 05:59:03;;;;;;;3.70;1.33;;;6.50;99.90;;;;;;5069682;28;20219;-77
2022/01/06 06:01:29;;;;;;;4.80;1.50;;;6.40;99.90;;;;;;5069424;28;20273;-77
2022/01/06 06:03:55;;;;;;;2.73;1.37;;;6.40;99.90;;;;;;5069505;28;20208;-79
2022/01/06 06:06:21;;;;;;;2.77;1.30;;;6.20;99.90;;;;;;5069046;28;20287;-76
2022/01/06 06:08:47;;;;;;;4.13;1.40;;;6.30;99.90;;;;;;5069234;28;20313;-79
2022/01/06 06:11:13;;;;;;;3.53;1.20;;;6.50;99.90;;;;;;5069417;28;20291;-76
2022/01/06 06:13:39;;;;;;;4.43;1.30;;;6.50;99.90;;;;;;5069521;28;20667;-77
2022/01/06 06:16:04;;;;;;;2.53;1.30;;;6.50;99.90;;;;;;5070360;28;20283;-78
2022/01/06 06:18:30;;;;;;;4.83;1.40;;;6.50;99.90;;;;;;5069596;28;20258;-77
2022/01/06 06:20:56;;;;;;;5.77;1.70;;;6.50;99.90;;;;;;5070934;28;20215;-77
2022/01/06 06:23:22;;;;;;;5.10;1.30;;;6.50;99.90;;;;;;5069440;28;20196;-78
2022/01/06 06:25:48;;;;;;;2.60;1.10;;;6.40;99.90;;;;;;5069753;28;20184;-77
2022/01/06 06:28:14;;;;;;;3.20;1.30;;;6.60;99.90;;;;;;5071751;28;20192;-79
2022/01/06 06:30:39;;;;;;;6.33;1.83;;;6.60;99.90;;;;;;5073091;28;20197;-77
2022/01/06 06:33:05;;;;;;;3.23;1.60;;;6.70;99.90;;;;;;5072738;28;20220;-79
2022/01/06 06:35:31;;;;;;;2.60;1.40;;;6.60;99.90;;;;;;5056655;28;20667;-78
2022/01/06 06:37:57;;;;;;;2.83;1.30;;;6.60;99.90;;;;;;5072836;28;20208;-77
2022/01/06 06:40:24;;;;;;;3.03;1.57;;;6.70;99.90;;;;;;5073030;28;20246;-77
2022/01/06 06:42:50;;;;;;;3.23;1.27;;;6.70;99.90;;;;;;5072946;28;20279;-79
2022/01/06 06:45:18;;;;;;;4.93;1.40;;;6.80;99.90;;;;;;5072538;28;20208;-79
2022/01/06 06:47:45;;;;;;;5.03;1.17;;;6.70;99.90;;;;;;5073949;28;20263;-77
2022/01/06 06:50:12;;;;;;;3.60;1.33;;;6.60;99.90;;;;;;5074074;28;20734;-79
2022/01/06 06:52:38;;;;;;;4.10;1.20;;;6.60;99.90;;;;;;5072554;28;20212;-77
2022/01/06 06:55:04;;;;;;;3.17;1.37;;;6.60;99.90;;;;;;5039087;28;20188;-77
2022/01/06 06:57:30;;;;;;;6.83;1.97;;;6.40;99.90;;;;;;5055947;28;20196;-79
2022/01/06 06:59:57;;;;;;;4.10;1.30;;;6.40;99.90;;;;;;5072531;28;20307;-79
2022/01/06 07:02:23;;;;;;;3.53;1.47;;;6.40;99.90;;;;;;5055712;28;20295;-78
2022/01/06 07:04:48;;;;;;;4.17;1.77;;;6.50;99.90;;;;;;5055131;28;20287;-79
2022/01/06 07:07:15;;;;;;;2.53;1.20;;;6.70;99.90;;;;;;5073625;28;20196;-80
2022/01/06 07:09:41;;;;;;;2.63;1.30;;;6.70;99.90;;;;;;5055676;28;20203;-80
2022/01/06 07:12:08;;;;;;;3.40;1.30;;;6.70;99.90;;;;;;5055883;28;20220;-79
2022/01/06 07:14:33;;;;;;;4.13;1.30;;;6.70;99.90;;;;;;5055541;28;20244;-79
2022/01/06 07:16:59;;;;;;;2.80;1.40;;;6.80;99.90;;;;;;5073575;28;20215;-76
2022/01/06 07:19:25;;;;;;;5.27;1.30;;;6.70;99.90;;;;;;5072556;28;20201;-76
2022/01/06 07:21:51;;;;;;;3.80;1.63;;;6.70;99.90;;;;;;5073465;28;20210;-77
2022/01/06 07:24:18;;;;;;;2.17;1.40;;;6.80;99.90;;;;;;5055486;28;20570;-76
2022/01/06 07:26:44;;;;;;;4.63;1.37;;;6.70;99.90;;;;;;5071456;28;20275;-78
2022/01/06 07:29:10;;;;;;;3.93;1.53;;;6.60;99.90;;;;;;5073409;28;20326;-79
2022/01/06 07:31:36;;;;;;;2.07;1.10;;;6.50;99.90;;;;;;5054873;28;20193;-76
2022/01/06 07:34:01;;;;;;;3.23;1.57;;;6.70;99.90;;;;;;5072808;28;20196;-79
2022/01/06 07:36:27;;;;;;;4.93;1.80;;;6.70;99.90;;;;;;5038274;28;20200;-79
2022/01/06 07:38:53;;;;;;;4.83;1.30;;;6.70;99.90;;;;;;5055157;28;20200;-77
2022/01/06 07:41:19;;;;;;;5.77;1.40;;;6.50;99.90;;;;;;5054952;28;20215;-79
2022/01/06 07:43:45;;;;;;;3.53;1.33;;;6.40;99.90;;;;;;5071709;28;20188;-79
2022/01/06 07:46:11;;;;;;;3.47;1.53;;;6.60;99.90;;;;;;5073115;28;20556;-76
2022/01/06 07:48:48;;;;;;;5.00;1.67;;;6.60;99.90;;;;;;5054925;28;20586;-79
2022/01/06 07:51:15;;;;;;;3.43;1.50;;;6.50;99.90;;;;;;5056322;28;20203;-79
2022/01/06 07:53:41;;;;;;;3.00;1.43;;;6.60;99.90;;;;;;5072526;28;20207;-77
2022/01/06 07:56:07;;;;;;;2.97;1.40;;;6.60;99.90;;;;;;5072537;28;20196;-75
2022/01/06 07:58:32;;;;;;;4.93;1.53;;;6.50;99.90;;;;;;5038031;28;20234;-80
2022/01/06 08:01:00;;;;;;;4.10;1.87;;;6.60;99.90;;;;;;5038881;28;20204;-77
2022/01/06 08:03:26;;;;;;;4.70;1.57;;;6.60;99.90;;;;;;5066734;28;20192;-77
2022/01/06 08:05:52;;;;;;;4.23;1.60;;;6.60;99.90;;;;;;5070077;28;20212;-79
2022/01/06 08:08:18;;;;;;;5.00;1.33;;;6.50;99.90;;;;;;5070750;28;20204;-75
2022/01/06 08:10:43;;;;;;;2.93;1.67;;;6.60;99.90;;;;;;5056188;28;20227;-79
2022/01/06 08:13:09;;;;;;;2.67;1.53;;;6.60;99.90;;;;;;5071310;28;20208;-76
2022/01/06 08:15:35;;;;;;;3.83;1.80;;;6.50;99.90;;;;;;5067914;28;20208;-78
2022/01/06 08:18:02;;;;;;;5.63;1.70;;;6.40;99.90;;;;;;5086602;28;20200;-77
2022/01/06 08:20:28;;;;;;;3.03;1.50;;;6.30;99.90;;;;;;5061030;28;20200;-78
2022/01/06 08:22:55;;;;;;;2.77;1.50;;;6.50;99.90;;;;;;5052140;28;20263;-77
2022/01/06 08:25:21;;;;;;;3.17;1.77;;;6.50;99.90;;;;;;5050982;28;20239;-76
2022/01/06 08:27:47;;;;;;;3.50;1.53;;;6.60;99.90;;;;;;5071321;28;20196;-78
2022/01/06 08:30:13;;;;;;;4.30;1.23;;;6.60;99.90;;;;;;5064220;28;20208;-79
2022/01/06 08:32:39;;;;;;;4.40;1.60;;;6.60;99.90;;;;;;5070715;28;20211;-77
2022/01/06 08:35:05;;;;;;;5.50;1.67;;;6.40;99.90;;;;;;5062211;28;20567;-80
2022/01/06 08:37:31;;;;;;;3.90;1.63;;;6.40;99.90;;;;;;5085736;28;20262;-77
2022/01/06 08:39:57;;;;;;;3.63;1.57;;;6.60;99.90;;;;;;5060529;28;20273;-77
2022/01/06 08:42:23;;;;;;;4.17;2.13;;;6.50;99.90;;;;;;5066797;28;20212;-81
2022/01/06 08:44:49;;;;;;;3.40;1.63;;;6.60;99.90;;;;;;5066548;28;20683;-78
2022/01/06 08:47:15;;;;;;;3.90;1.50;;;6.70;99.90;;;;;;5069556;28;20279;-79
2022/01/06 08:49:42;;;;;;;2.70;1.80;;;6.80;99.90;;;;;;5050645;28;20530;-79
2022/01/06 08:52:08;;;;;;;4.70;1.50;;;6.60;99.90;;;;;;5067734;28;20200;-77
2022/01/06 08:54:34;;;;;;;8.37;2.13;;;6.20;99.90;;;;;;5069277;28;20197;-77
2022/01/06 08:57:00;;;;;;;3.70;1.60;;;6.40;99.90;;;;;;5066299;28;20193;-78
2022/01/06 08:59:26;;;;;;;3.67;2.20;;;6.50;99.90;;;;;;5073751;28;20220;-78
2022/01/06 09:01:55;;;;;;;5.30;1.63;;;6.50;99.90;;;;;;5086198;28;20907;-79
2022/01/06 09:04:22;;;;;;;4.63;1.60;;;6.40;99.90;;;;;;5054231;28;20267;-77
2022/01/06 09:06:49;;;;;;;4.57;1.80;;;6.30;99.90;;;;;;5068699;28;20283;-77
2022/01/06 09:09:18;;;;;;;5.33;1.87;;;6.30;99.90;;;;;;5038353;28;20203;-80
2022/01/06 09:11:45;;;;;;;6.33;1.77;;;6.10;99.90;;;;;;5063677;28;20926;-76
2022/01/06 09:14:12;;;;;;;4.03;1.43;;;6.20;99.90;;;;;;5083611;28;20226;-77
2022/01/06 09:16:39;;;;;;;4.00;1.70;;;5.90;99.90;;;;;;5085610;28;20204;-77
2022/01/06 09:19:05;;;;;;;2.40;1.50;;;5.70;99.90;;;;;;5070216;28;20238;-82
2022/01/06 09:21:31;;;;;;;4.13;1.73;;;5.90;99.90;;;;;;5066073;28;20295;-78
2022/01/06 09:23:59;;;;;;;3.63;1.70;;;5.70;99.90;;;;;;5072481;28;20203;-77
2022/01/06 09:26:26;;;;;;;5.50;1.83;;;5.90;99.90;;;;;;5070092;28;20263;-80
2022/01/06 09:28:52;;;;;;;4.27;1.63;;;5.90;99.90;;;;;;5069148;28;20231;-83
2022/01/06 09:31:18;;;;;;;5.77;1.77;;;6.00;99.90;;;;;;5069247;28;20211;-80
2022/01/06 09:33:44;;;;;;;7.37;2.10;;;6.10;99.90;;;;;;5054013;28;20216;-83
2022/01/06 09:36:10;;;;;;;4.83;1.63;;;6.30;99.90;;;;;;5069871;28;20251;-79
2022/01/06 09:38:35;;;;;;;7.37;2.20;;;6.30;99.90;;;;;;5069588;28;20192;-84
2022/01/06 09:41:05;;;;;;;7.50;2.30;;;6.60;99.90;;;;;;5069830;28;20199;-82
2022/01/06 09:43:32;;;;;;;4.07;2.00;;;6.60;99.90;;;;;;5036637;28;20715;-76
2022/01/06 09:46:08;;;;;;;3.67;1.67;;;6.40;99.90;;;;;;5068954;28;20257;-83
2022/01/06 09:48:39;;;;;;;9.23;2.00;;;6.60;99.90;;;;;;5069297;28;20546;-83
2022/01/06 09:51:05;;;;;;;4.33;1.90;;;6.70;99.90;;;;;;5068281;28;20239;-77
2022/01/06 09:53:31;;;;;;;8.33;2.10;;;6.70;99.90;;;;;;5068980;28;20553;-82
2022/01/06 09:55:57;;;;;;;4.10;1.80;;;6.90;99.90;;;;;;5040650;28;20238;-80
2022/01/06 09:58:25;;;;;;;5.57;1.57;;;6.90;99.90;;;;;;5048380;28;20230;-76
2022/01/06 10:00:52;;;;;;;2.83;1.47;;;7.00;99.90;;;;;;5064803;28;20227;-80
2022/01/06 10:03:18;;;;;;;3.13;1.23;;;6.80;99.90;;;;;;5069653;28;20199;-77
2022/01/06 10:05:46;;;;;;;3.13;1.50;;;6.70;99.90;;;;;;5054339;28;20333;-79
2022/01/06 10:08:14;;;;;;;5.20;1.43;;;6.60;99.90;;;;;;5053954;28;20291;-81
2022/01/06 10:10:40;;;;;;;6.20;1.90;;;6.80;99.90;;;;;;5070843;28;20208;-81
2022/01/06 10:13:09;;;;;;;3.10;1.40;;;6.90;99.90;;;;;;5061949;28;20223;-76
2022/01/06 10:15:36;;;;;;;2.93;1.60;;;6.90;99.90;;;;;;5071216;28;20227;-77
2022/01/06 10:18:16;;;;;;;4.00;1.70;;;6.70;99.90;;;;;;5067565;28;20200;-80
2022/01/06 10:20:43;;;;;;;4.50;1.57;;;6.50;99.90;;;;;;5073323;28;20256;-76
2022/01/06 10:23:12;;;;;;;4.93;1.87;;;6.70;99.90;;;;;;5073653;28;20211;-77
2022/01/06 10:25:46;;;;;;;3.80;1.73;;;6.70;99.90;;;;;;5041651;28;20664;-75
2022/01/06 10:28:20;;;;;;;3.00;1.60;;;6.90;99.90;;;;;;5057280;28;20257;-80
2022/01/06 10:30:49;;;;;;;4.83;2.10;;;6.90;99.90;;;;;;5071104;28;20930;-77
2022/01/06 10:33:20;;;;;;;5.77;2.00;;;7.00;99.90;;;;;;5055540;28;20558;-79
2022/01/06 10:35:46;;;;;;;6.13;1.50;;;7.00;99.90;;;;;;5043797;28;20720;-77
2022/01/06 10:38:12;;;;;;;4.03;1.50;;;7.00;99.90;;;;;;5054565;28;20208;-78
2022/01/06 10:40:39;;;;;;;8.27;2.03;;;7.00;99.90;;;;;;5068735;28;20567;-78
2022/01/06 10:43:06;;;;;;;2.63;1.50;;;7.00;99.90;;;;;;5071009;28;20200;-79
2022/01/06 10:45:34;;;;;;;2.30;1.03;;;6.90;99.90;;;;;;5069584;28;21738;-78
2022/01/06 10:48:03;;;;;;;5.63;1.90;;;6.90;99.90;;;;;;5066130;28;20330;-76
2022/01/06 10:50:33;;;;;;;8.70;1.77;;;6.90;99.90;;;;;;5067922;28;20693;-76
2022/01/06 10:53:04;;;;;;;5.60;1.43;;;7.00;99.90;;;;;;5069508;28;20235;-78
2022/01/06 10:55:35;;;;;;;3.83;1.50;;;7.00;99.90;;;;;;5072372;28;20211;-76
2022/01/06 10:58:18;;;;;;;3.83;1.13;;;7.10;99.90;;;;;;5086264;28;20281;-76
2022/01/06 11:01:01;;;;;;;3.60;1.57;;;7.10;99.90;;;;;;5050708;28;20279;-77
2022/01/06 11:03:33;;;;;;;6.13;1.90;;;7.20;99.90;;;;;;5070956;28;20672;-77
2022/01/06 11:06:02;;;;;;;6.43;1.77;;;7.00;99.90;;;;;;5070020;28;20671;-77
2022/01/06 11:08:31;;;;;;;6.30;1.63;;;7.10;99.90;;;;;;5070504;28;20298;-76
2022/01/06 11:13:39;;;;;;;4.37;1.70;;;7.00;99.90;;;;;;5066969;28;20216;-77
2022/01/06 11:16:06;;;;;;;3.87;1.33;;;7.00;99.90;;;;;;5061078;28;20203;-77
2022/01/06 11:18:33;;;;;;;9.13;1.63;;;6.90;99.90;;;;;;5079771;28;20173;-78
2022/01/06 11:21:05;;;;;;;3.30;1.20;;;6.80;99.90;;;;;;5065969;28;20684;-79
2022/01/06 11:23:32;;;;;;;6.90;1.37;;;6.80;99.90;;;;;;5065378;28;20207;-76
2022/01/06 11:26:15;;;;;;;5.23;1.20;;;7.00;99.90;;;;;;5062481;28;20250;-79
2022/01/06 11:28:43;;;;;;;6.43;1.50;;;7.20;99.90;;;;;;5061670;28;20679;-80
2022/01/06 11:31:24;;;;;;;4.87;1.40;;;7.20;99.90;;;;;;5070173;28;20196;-79
2022/01/06 11:33:52;;;;;;;2.70;1.20;;;7.30;99.90;;;;;;5068977;28;20212;-79
2022/01/06 11:36:24;;;;;;;6.27;1.77;;;7.40;99.90;;;;;;5059494;28;20209;-80
2022/01/06 11:38:51;;;;;;;5.43;1.30;;;7.20;99.90;;;;;;5070810;28;20219;-79
2022/01/06 11:41:18;;;;;;;3.37;1.20;;;7.30;99.90;;;;;;5047205;28;20204;-79
2022/01/06 11:43:47;;;;;;;4.33;1.80;;;7.30;99.90;;;;;;5066030;28;20570;-77
2022/01/06 11:46:14;;;;;;;4.40;1.30;;;7.30;99.90;;;;;;5066714;28;20204;-76
2022/01/06 11:48:49;;;;;;;3.80;1.77;;;7.30;99.90;;;;;;5063669;28;20209;-76
2022/01/06 11:51:32;;;;;;;4.30;1.33;;;7.30;99.90;;;;;;5062477;28;20275;-80
2022/01/06 11:54:10;;;;;;;3.50;1.10;;;7.40;99.90;;;;;;5062978;28;20223;-78
2022/01/06 11:56:47;;;;;;;6.77;1.40;;;7.60;99.90;;;;;;5058155;28;20258;-77
2022/01/06 11:59:13;;;;;;;4.33;1.53;;;7.60;99.90;;;;;;5070696;28;20207;-77
2022/01/06 12:01:48;;;;;;;5.30;1.27;;;7.50;99.90;;;;;;5052718;28;20208;-79
2022/01/06 12:04:16;;;;;;;4.43;1.53;;;7.50;99.90;;;;;;5084654;28;20203;-76
2022/01/06 12:06:43;;;;;;;2.97;1.27;;;7.30;99.90;;;;;;5055595;28;20196;-81
2022/01/06 12:09:21;;;;;;;3.43;1.20;;;7.30;99.90;;;;;;5058869;28;20196;-80
2022/01/06 12:11:58;;;;;;;4.10;1.30;;;7.20;99.90;;;;;;5052043;28;20590;-81
2022/01/06 12:14:27;;;;;;;2.67;1.00;;;7.10;99.90;;;;;;5052767;28;20218;-76
2022/01/06 12:17:07;;;;;;;4.07;1.30;;;7.30;99.90;;;;;;5071016;28;20204;-80
2022/01/06 12:19:34;;;;;;;6.53;1.47;;;7.20;99.90;;;;;;5070778;28;20192;-77
2022/01/06 12:22:00;;;;;;;3.43;1.23;;;7.40;99.90;;;;;;5085929;28;20198;-80
2022/01/06 12:24:26;;;;;;;2.90;1.33;;;7.20;99.90;;;;;;5068145;28;20710;-79
2022/01/06 12:26:54;;;;;;;3.73;1.47;;;6.90;99.90;;;;;;5085393;28;20210;-82
2022/01/06 12:29:23;;;;;;;4.73;1.47;;;7.10;99.90;;;;;;5070593;28;20187;-79
2022/01/06 12:31:50;;;;;;;6.23;1.20;;;7.20;99.90;;;;;;5062784;28;20199;-81
2022/01/06 12:34:19;;;;;;;5.73;1.57;;;7.30;99.90;;;;;;5070393;28;20675;-76
2022/01/06 12:36:46;;;;;;;3.87;1.60;;;7.40;99.90;;;;;;5057677;28;20296;-81
2022/01/06 12:39:17;;;;;;;7.63;1.97;;;7.20;99.90;;;;;;5069266;28;20235;-80
2022/01/06 12:41:45;;;;;;;3.43;1.40;;;7.10;99.90;;;;;;5056321;28;20726;-80
2022/01/06 12:44:24;;;;;;;4.80;1.70;;;7.10;99.90;;;;;;5066249;28;20197;-78
2022/01/06 12:46:50;;;;;;;5.23;1.57;;;6.80;99.90;;;;;;5069381;28;20196;-79
2022/01/06 12:49:20;;;;;;;6.57;2.00;;;6.90;99.90;;;;;;5073670;28;20231;-77
2022/01/06 12:51:48;;;;;;;6.13;1.80;;;7.10;99.90;;;;;;5069143;28;20572;-76
2022/01/06 12:54:21;;;;;;;4.63;1.30;;;7.20;99.90;;;;;;5068478;28;20283;-80
2022/01/06 12:56:56;;;;;;;2.83;1.30;;;7.30;99.90;;;;;;5084320;28;20207;-80
2022/01/06 12:59:24;;;;;;;6.20;1.57;;;7.40;99.90;;;;;;5066583;28;20229;-77
2022/01/06 13:02:03;;;;;;;7.23;1.50;;;7.80;99.90;;;;;;5084992;28;20241;-78
2022/01/06 13:04:38;;;;;;;4.67;1.80;;;8.10;99.90;;;;;;5078261;28;20210;-76